sensor_id;sensor_type;location;lat;lon;timestamp;P1;durP1;ratioP1;P2;durP2;ratioP2
80503;SDS011;69825;51.190;6.808;2023-05-10T00:00:42;1.37;;;1.03;;
80503;SDS011;69825;51.190;6.808;2023-05-10T00:03:08;1.15;;;0.90;;
80503;SDS011;69825;51.190;6.808;2023-05-10T00:05:33;1.45;;;1.17;;
80503;SDS011;69825;51.190;6.808;2023-05-10T00:07:58;0.70;;;0.70;;
80503;SDS011;69825;51.190;6.808;2023-05-10T00:10:23;1.83;;;1.00;;
80503;SDS011;69825;51.190;6.808;2023-05-10T00:12:49;1.00;;;0.90;;
80503;SDS011;69825;51.190;6.808;2023-05-10T00:15:14;1.20;;;1.10;;
80503;SDS011;69825;51.190;6.808;2023-05-10T00:17:39;1.20;;;0.90;;
80503;SDS011;69825;51.190;6.808;2023-05-10T00:20:04;1.33;;;1.00;;
80503;SDS011;69825;51.190;6.808;2023-05-10T00:22:30;1.75;;;1.00;;
80503;SDS011;69825;51.190;6.808;2023-05-10T00:24:55;1.10;;;1.00;;
80503;SDS011;69825;51.190;6.808;2023-05-10T00:27:20;1.07;;;0.97;;
80503;SDS011;69825;51.190;6.808;2023-05-10T00:29:46;2.80;;;1.00;;
80503;SDS011;69825;51.190;6.808;2023-05-10T00:32:11;1.08;;;1.08;;
80503;SDS011;69825;51.190;6.808;2023-05-10T00:34:36;1.83;;;0.95;;
80503;SDS011;69825;51.190;6.808;2023-05-10T00:37:01;1.73;;;0.90;;
80503;SDS011;69825;51.190;6.808;2023-05-10T00:39:27;1.55;;;1.10;;
80503;SDS011;69825;51.190;6.808;2023-05-10T00:41:53;1.83;;;1.10;;
80503;SDS011;69825;51.190;6.808;2023-05-10T00:44:18;0.87;;;0.87;;
80503;SDS011;69825;51.190;6.808;2023-05-10T00:46:43;3.00;;;1.20;;
80503;SDS011;69825;51.190;6.808;2023-05-10T00:49:09;1.42;;;1.10;;
80503;SDS011;69825;51.190;6.808;2023-05-10T00:51:34;1.33;;;1.10;;
80503;SDS011;69825;51.190;6.808;2023-05-10T00:54:00;0.97;;;0.97;;
80503;SDS011;69825;51.190;6.808;2023-05-10T00:56:25;1.63;;;1.10;;
80503;SDS011;69825;51.190;6.808;2023-05-10T00:58:51;0.90;;;0.90;;
80503;SDS011;69825;51.190;6.808;2023-05-10T01:01:16;1.00;;;1.00;;
80503;SDS011;69825;51.190;6.808;2023-05-10T01:03:41;0.90;;;0.90;;
80503;SDS011;69825;51.190;6.808;2023-05-10T01:06:07;1.05;;;1.00;;
80503;SDS011;69825;51.190;6.808;2023-05-10T01:08:32;1.20;;;1.10;;
80503;SDS011;69825;51.190;6.808;2023-05-10T01:10:57;1.15;;;1.10;;
80503;SDS011;69825;51.190;6.808;2023-05-10T01:13:28;1.20;;;1.10;;
80503;SDS011;69825;51.190;6.808;2023-05-10T01:15:55;1.02;;;0.93;;
80503;SDS011;69825;51.190;6.808;2023-05-10T01:18:20;1.15;;;0.95;;
80503;SDS011;69825;51.190;6.808;2023-05-10T01:20:46;1.20;;;1.10;;
80503;SDS011;69825;51.190;6.808;2023-05-10T01:33:23;1.00;;;0.90;;
80503;SDS011;69825;51.190;6.808;2023-05-10T01:35:51;1.08;;;1.00;;
80503;SDS011;69825;51.190;6.808;2023-05-10T01:38:30;1.05;;;1.00;;
80503;SDS011;69825;51.190;6.808;2023-05-10T01:41:13;0.90;;;0.90;;
80503;SDS011;69825;51.190;6.808;2023-05-10T01:43:45;1.17;;;1.02;;
80503;SDS011;69825;51.190;6.808;2023-05-10T01:46:14;1.00;;;0.93;;
80503;SDS011;69825;51.190;6.808;2023-05-10T01:48:47;1.02;;;0.98;;
80503;SDS011;69825;51.190;6.808;2023-05-10T01:51:15;1.02;;;0.95;;
80503;SDS011;69825;51.190;6.808;2023-05-10T01:53:41;0.90;;;0.90;;
80503;SDS011;69825;51.190;6.808;2023-05-10T01:56:07;1.00;;;0.90;;
80503;SDS011;69825;51.190;6.808;2023-05-10T01:58:32;1.13;;;1.05;;
80503;SDS011;69825;51.190;6.808;2023-05-10T02:01:00;0.90;;;0.90;;
80503;SDS011;69825;51.190;6.808;2023-05-10T02:03:26;0.90;;;0.90;;
80503;SDS011;69825;51.190;6.808;2023-05-10T02:05:53;1.42;;;1.00;;
80503;SDS011;69825;51.190;6.808;2023-05-10T02:08:19;0.82;;;0.82;;
80503;SDS011;69825;51.190;6.808;2023-05-10T02:10:45;1.00;;;1.00;;
80503;SDS011;69825;51.190;6.808;2023-05-10T02:13:11;1.00;;;1.00;;
80503;SDS011;69825;51.190;6.808;2023-05-10T02:15:37;1.20;;;0.90;;
80503;SDS011;69825;51.190;6.808;2023-05-10T02:18:03;0.80;;;0.80;;
80503;SDS011;69825;51.190;6.808;2023-05-10T02:20:29;1.05;;;0.90;;
80503;SDS011;69825;51.190;6.808;2023-05-10T02:22:56;1.15;;;1.00;;
80503;SDS011;69825;51.190;6.808;2023-05-10T02:25:23;0.80;;;0.80;;
80503;SDS011;69825;51.190;6.808;2023-05-10T02:27:48;1.63;;;1.00;;
80503;SDS011;69825;51.190;6.808;2023-05-10T02:30:14;0.90;;;0.90;;
80503;SDS011;69825;51.190;6.808;2023-05-10T02:32:39;1.65;;;0.93;;
80503;SDS011;69825;51.190;6.808;2023-05-10T02:35:05;1.27;;;0.80;;
80503;SDS011;69825;51.190;6.808;2023-05-10T02:37:30;1.00;;;1.00;;
80503;SDS011;69825;51.190;6.808;2023-05-10T02:39:57;0.90;;;0.90;;
80503;SDS011;69825;51.190;6.808;2023-05-10T02:42:26;0.80;;;0.80;;
80503;SDS011;69825;51.190;6.808;2023-05-10T02:44:53;1.00;;;0.90;;
80503;SDS011;69825;51.190;6.808;2023-05-10T02:47:19;1.40;;;1.05;;
80503;SDS011;69825;51.190;6.808;2023-05-10T02:49:44;0.80;;;0.80;;
80503;SDS011;69825;51.190;6.808;2023-05-10T02:52:10;0.80;;;0.80;;
80503;SDS011;69825;51.190;6.808;2023-05-10T02:54:45;0.82;;;0.80;;
80503;SDS011;69825;51.190;6.808;2023-05-10T02:57:11;2.15;;;1.10;;
80503;SDS011;69825;51.190;6.808;2023-05-10T02:59:39;1.17;;;1.00;;
80503;SDS011;69825;51.190;6.808;2023-05-10T03:02:05;0.98;;;0.98;;
80503;SDS011;69825;51.190;6.808;2023-05-10T03:04:30;0.80;;;0.80;;
80503;SDS011;69825;51.190;6.808;2023-05-10T03:06:55;0.80;;;0.80;;
80503;SDS011;69825;51.190;6.808;2023-05-10T03:09:20;0.73;;;0.73;;
80503;SDS011;69825;51.190;6.808;2023-05-10T03:17:11;0.93;;;0.93;;
80503;SDS011;69825;51.190;6.808;2023-05-10T03:19:43;1.10;;;1.00;;
80503;SDS011;69825;51.190;6.808;2023-05-10T03:22:11;0.80;;;0.80;;
80503;SDS011;69825;51.190;6.808;2023-05-10T03:24:38;1.02;;;1.00;;
80503;SDS011;69825;51.190;6.808;2023-05-10T03:27:04;0.70;;;0.70;;
80503;SDS011;69825;51.190;6.808;2023-05-10T03:29:30;2.05;;;0.90;;
80503;SDS011;69825;51.190;6.808;2023-05-10T03:31:57;0.70;;;0.70;;
80503;SDS011;69825;51.190;6.808;2023-05-10T03:34:23;0.85;;;0.85;;
80503;SDS011;69825;51.190;6.808;2023-05-10T03:36:48;0.80;;;0.80;;
80503;SDS011;69825;51.190;6.808;2023-05-10T03:39:13;1.00;;;0.90;;
80503;SDS011;69825;51.190;6.808;2023-05-10T03:41:38;0.70;;;0.70;;
80503;SDS011;69825;51.190;6.808;2023-05-10T03:44:03;0.80;;;0.80;;
80503;SDS011;69825;51.190;6.808;2023-05-10T03:46:29;0.95;;;0.95;;
80503;SDS011;69825;51.190;6.808;2023-05-10T03:48:54;0.80;;;0.80;;
80503;SDS011;69825;51.190;6.808;2023-05-10T03:51:19;0.80;;;0.80;;
80503;SDS011;69825;51.190;6.808;2023-05-10T03:53:44;0.73;;;0.73;;
80503;SDS011;69825;51.190;6.808;2023-05-10T03:56:09;0.80;;;0.80;;
80503;SDS011;69825;51.190;6.808;2023-05-10T03:58:35;0.80;;;0.80;;
80503;SDS011;69825;51.190;6.808;2023-05-10T04:01:00;0.80;;;0.80;;
80503;SDS011;69825;51.190;6.808;2023-05-10T04:03:25;0.90;;;0.90;;
80503;SDS011;69825;51.190;6.808;2023-05-10T04:05:58;0.90;;;0.90;;
80503;SDS011;69825;51.190;6.808;2023-05-10T04:08:23;1.67;;;0.93;;
80503;SDS011;69825;51.190;6.808;2023-05-10T04:10:48;1.13;;;1.00;;
80503;SDS011;69825;51.190;6.808;2023-05-10T04:13:13;0.88;;;0.88;;
80503;SDS011;69825;51.190;6.808;2023-05-10T04:15:38;0.90;;;0.90;;
80503;SDS011;69825;51.190;6.808;2023-05-10T04:18:04;0.80;;;0.80;;
80503;SDS011;69825;51.190;6.808;2023-05-10T04:20:29;0.90;;;0.90;;
80503;SDS011;69825;51.190;6.808;2023-05-10T04:22:54;1.30;;;0.90;;
80503;SDS011;69825;51.190;6.808;2023-05-10T04:25:19;2.58;;;0.90;;
80503;SDS011;69825;51.190;6.808;2023-05-10T04:27:44;0.80;;;0.80;;
80503;SDS011;69825;51.190;6.808;2023-05-10T04:30:09;1.10;;;1.00;;
80503;SDS011;69825;51.190;6.808;2023-05-10T04:32:35;1.52;;;0.98;;
80503;SDS011;69825;51.190;6.808;2023-05-10T04:35:01;0.82;;;0.82;;
80503;SDS011;69825;51.190;6.808;2023-05-10T04:37:28;1.92;;;1.10;;
80503;SDS011;69825;51.190;6.808;2023-05-10T04:39:53;2.10;;;1.10;;
80503;SDS011;69825;51.190;6.808;2023-05-10T04:42:18;2.00;;;0.90;;
80503;SDS011;69825;51.190;6.808;2023-05-10T04:44:43;2.43;;;1.20;;
80503;SDS011;69825;51.190;6.808;2023-05-10T04:47:09;1.37;;;1.23;;
80503;SDS011;69825;51.190;6.808;2023-05-10T04:49:34;5.95;;;1.48;;
80503;SDS011;69825;51.190;6.808;2023-05-10T04:51:59;1.53;;;1.10;;
80503;SDS011;69825;51.190;6.808;2023-05-10T04:54:24;2.25;;;1.10;;
80503;SDS011;69825;51.190;6.808;2023-05-10T04:56:49;2.57;;;1.10;;
80503;SDS011;69825;51.190;6.808;2023-05-10T04:59:15;5.40;;;1.10;;
80503;SDS011;69825;51.190;6.808;2023-05-10T05:01:40;3.67;;;1.83;;
80503;SDS011;69825;51.190;6.808;2023-05-10T05:04:05;10.17;;;2.80;;
80503;SDS011;69825;51.190;6.808;2023-05-10T05:06:30;3.90;;;2.87;;
80503;SDS011;69825;51.190;6.808;2023-05-10T05:08:55;3.43;;;2.23;;
80503;SDS011;69825;51.190;6.808;2023-05-10T05:11:20;4.20;;;2.17;;
80503;SDS011;69825;51.190;6.808;2023-05-10T05:13:46;4.27;;;2.60;;
80503;SDS011;69825;51.190;6.808;2023-05-10T05:16:12;4.65;;;2.30;;
80503;SDS011;69825;51.190;6.808;2023-05-10T05:18:37;4.47;;;2.03;;
80503;SDS011;69825;51.190;6.808;2023-05-10T05:21:02;5.00;;;1.90;;
80503;SDS011;69825;51.190;6.808;2023-05-10T05:23:28;8.15;;;2.00;;
80503;SDS011;69825;51.190;6.808;2023-05-10T05:25:53;5.33;;;2.70;;
80503;SDS011;69825;51.190;6.808;2023-05-10T05:28:19;9.60;;;2.40;;
80503;SDS011;69825;51.190;6.808;2023-05-10T05:30:44;6.53;;;2.60;;
80503;SDS011;69825;51.190;6.808;2023-05-10T05:33:09;6.43;;;2.67;;
80503;SDS011;69825;51.190;6.808;2023-05-10T05:35:34;5.80;;;2.20;;
80503;SDS011;69825;51.190;6.808;2023-05-10T05:37:59;7.37;;;2.33;;
80503;SDS011;69825;51.190;6.808;2023-05-10T05:40:25;4.38;;;2.33;;
80503;SDS011;69825;51.190;6.808;2023-05-10T05:42:50;5.97;;;2.80;;
80503;SDS011;69825;51.190;6.808;2023-05-10T05:45:15;5.77;;;2.20;;
80503;SDS011;69825;51.190;6.808;2023-05-10T05:47:40;5.13;;;2.30;;
80503;SDS011;69825;51.190;6.808;2023-05-10T05:50:06;6.95;;;2.42;;
80503;SDS011;69825;51.190;6.808;2023-05-10T05:52:31;3.95;;;1.95;;
80503;SDS011;69825;51.190;6.808;2023-05-10T05:54:56;5.20;;;2.03;;
80503;SDS011;69825;51.190;6.808;2023-05-10T05:57:22;4.03;;;2.23;;
80503;SDS011;69825;51.190;6.808;2023-05-10T05:59:47;4.95;;;1.95;;
80503;SDS011;69825;51.190;6.808;2023-05-10T06:02:13;4.97;;;1.90;;
80503;SDS011;69825;51.190;6.808;2023-05-10T06:04:38;4.25;;;1.80;;
80503;SDS011;69825;51.190;6.808;2023-05-10T06:07:03;5.47;;;1.80;;
80503;SDS011;69825;51.190;6.808;2023-05-10T06:09:28;4.83;;;2.10;;
80503;SDS011;69825;51.190;6.808;2023-05-10T06:11:53;3.15;;;1.90;;
80503;SDS011;69825;51.190;6.808;2023-05-10T06:14:21;2.60;;;1.70;;
80503;SDS011;69825;51.190;6.808;2023-05-10T06:16:47;7.30;;;1.92;;
80503;SDS011;69825;51.190;6.808;2023-05-10T06:19:12;7.27;;;1.80;;
80503;SDS011;69825;51.190;6.808;2023-05-10T06:21:37;3.50;;;1.80;;
80503;SDS011;69825;51.190;6.808;2023-05-10T06:24:02;4.50;;;2.20;;
80503;SDS011;69825;51.190;6.808;2023-05-10T06:26:28;3.83;;;1.80;;
80503;SDS011;69825;51.190;6.808;2023-05-10T06:28:53;3.40;;;1.60;;
80503;SDS011;69825;51.190;6.808;2023-05-10T06:31:18;3.77;;;1.70;;
80503;SDS011;69825;51.190;6.808;2023-05-10T06:33:43;6.70;;;1.97;;
80503;SDS011;69825;51.190;6.808;2023-05-10T06:36:08;4.57;;;1.63;;
80503;SDS011;69825;51.190;6.808;2023-05-10T06:38:33;3.20;;;1.93;;
80503;SDS011;69825;51.190;6.808;2023-05-10T06:40:59;3.30;;;1.75;;
80503;SDS011;69825;51.190;6.808;2023-05-10T06:43:24;3.95;;;1.90;;
80503;SDS011;69825;51.190;6.808;2023-05-10T06:45:51;2.90;;;1.75;;
80503;SDS011;69825;51.190;6.808;2023-05-10T06:48:16;3.28;;;1.77;;
80503;SDS011;69825;51.190;6.808;2023-05-10T06:50:41;2.70;;;1.80;;
80503;SDS011;69825;51.190;6.808;2023-05-10T06:53:07;2.50;;;1.95;;
80503;SDS011;69825;51.190;6.808;2023-05-10T06:55:32;5.07;;;2.00;;
80503;SDS011;69825;51.190;6.808;2023-05-10T06:57:57;2.20;;;1.67;;
80503;SDS011;69825;51.190;6.808;2023-05-10T07:00:22;3.13;;;1.90;;
80503;SDS011;69825;51.190;6.808;2023-05-10T07:02:48;4.13;;;1.73;;
80503;SDS011;69825;51.190;6.808;2023-05-10T07:05:13;3.58;;;1.63;;
80503;SDS011;69825;51.190;6.808;2023-05-10T07:07:39;2.55;;;1.58;;
80503;SDS011;69825;51.190;6.808;2023-05-10T07:10:04;3.55;;;1.60;;
80503;SDS011;69825;51.190;6.808;2023-05-10T07:12:30;2.15;;;1.70;;
80503;SDS011;69825;51.190;6.808;2023-05-10T07:14:55;2.55;;;1.65;;
80503;SDS011;69825;51.190;6.808;2023-05-10T07:17:20;3.20;;;2.23;;
80503;SDS011;69825;51.190;6.808;2023-05-10T07:19:45;3.40;;;1.73;;
80503;SDS011;69825;51.190;6.808;2023-05-10T07:22:10;1.90;;;1.40;;
80503;SDS011;69825;51.190;6.808;2023-05-10T07:24:36;3.85;;;1.77;;
80503;SDS011;69825;51.190;6.808;2023-05-10T07:27:01;4.47;;;1.73;;
80503;SDS011;69825;51.190;6.808;2023-05-10T07:29:26;2.27;;;1.70;;
80503;SDS011;69825;51.190;6.808;2023-05-10T07:31:52;2.40;;;1.70;;
80503;SDS011;69825;51.190;6.808;2023-05-10T07:34:17;3.15;;;1.73;;
80503;SDS011;69825;51.190;6.808;2023-05-10T07:36:42;2.87;;;1.70;;
80503;SDS011;69825;51.190;6.808;2023-05-10T07:39:07;3.00;;;1.80;;
80503;SDS011;69825;51.190;6.808;2023-05-10T07:41:32;3.47;;;1.87;;
80503;SDS011;69825;51.190;6.808;2023-05-10T07:43:58;3.03;;;1.80;;
80503;SDS011;69825;51.190;6.808;2023-05-10T07:46:23;2.08;;;1.70;;
80503;SDS011;69825;51.190;6.808;2023-05-10T07:48:48;2.33;;;1.60;;
80503;SDS011;69825;51.190;6.808;2023-05-10T07:51:13;4.30;;;1.70;;
80503;SDS011;69825;51.190;6.808;2023-05-10T07:53:38;3.70;;;1.95;;
80503;SDS011;69825;51.190;6.808;2023-05-10T07:56:20;3.47;;;2.08;;
80503;SDS011;69825;51.190;6.808;2023-05-10T07:58:45;3.55;;;1.67;;
80503;SDS011;69825;51.190;6.808;2023-05-10T08:01:10;1.85;;;1.52;;
80503;SDS011;69825;51.190;6.808;2023-05-10T08:03:35;1.60;;;1.50;;
80503;SDS011;69825;51.190;6.808;2023-05-10T08:06:00;2.58;;;1.60;;
80503;SDS011;69825;51.190;6.808;2023-05-10T08:08:26;2.17;;;1.50;;
80503;SDS011;69825;51.190;6.808;2023-05-10T08:10:51;2.13;;;1.73;;
80503;SDS011;69825;51.190;6.808;2023-05-10T08:13:16;1.77;;;1.60;;
80503;SDS011;69825;51.190;6.808;2023-05-10T08:15:41;1.77;;;1.60;;
80503;SDS011;69825;51.190;6.808;2023-05-10T08:18:06;2.37;;;1.80;;
80503;SDS011;69825;51.190;6.808;2023-05-10T08:20:31;2.47;;;1.90;;
80503;SDS011;69825;51.190;6.808;2023-05-10T08:22:57;3.00;;;2.17;;
80503;SDS011;69825;51.190;6.808;2023-05-10T08:25:22;3.67;;;1.80;;
80503;SDS011;69825;51.190;6.808;2023-05-10T08:27:47;2.60;;;1.92;;
80503;SDS011;69825;51.190;6.808;2023-05-10T08:30:12;3.13;;;1.93;;
80503;SDS011;69825;51.190;6.808;2023-05-10T08:32:37;2.22;;;1.70;;
80503;SDS011;69825;51.190;6.808;2023-05-10T08:35:03;3.33;;;2.00;;
80503;SDS011;69825;51.190;6.808;2023-05-10T08:37:29;2.05;;;1.90;;
80503;SDS011;69825;51.190;6.808;2023-05-10T08:39:54;4.30;;;2.10;;
80503;SDS011;69825;51.190;6.808;2023-05-10T08:42:19;1.80;;;1.70;;
80503;SDS011;69825;51.190;6.808;2023-05-10T08:44:47;3.22;;;2.03;;
80503;SDS011;69825;51.190;6.808;2023-05-10T08:47:13;2.55;;;2.10;;
80503;SDS011;69825;51.190;6.808;2023-05-10T08:49:40;2.42;;;2.17;;
80503;SDS011;69825;51.190;6.808;2023-05-10T08:52:06;2.63;;;2.05;;
80503;SDS011;69825;51.190;6.808;2023-05-10T08:54:32;2.75;;;1.98;;
80503;SDS011;69825;51.190;6.808;2023-05-10T08:56:58;2.30;;;2.05;;
80503;SDS011;69825;51.190;6.808;2023-05-10T08:59:23;2.33;;;2.17;;
80503;SDS011;69825;51.190;6.808;2023-05-10T09:01:48;3.17;;;2.30;;
80503;SDS011;69825;51.190;6.808;2023-05-10T09:04:14;3.05;;;2.30;;
80503;SDS011;69825;51.190;6.808;2023-05-10T09:06:39;2.10;;;1.95;;
80503;SDS011;69825;51.190;6.808;2023-05-10T09:09:04;2.63;;;2.43;;
80503;SDS011;69825;51.190;6.808;2023-05-10T09:11:29;2.87;;;2.17;;
80503;SDS011;69825;51.190;6.808;2023-05-10T09:13:55;2.72;;;2.00;;
80503;SDS011;69825;51.190;6.808;2023-05-10T09:16:21;2.85;;;2.40;;
80503;SDS011;69825;51.190;6.808;2023-05-10T09:18:46;4.38;;;2.60;;
80503;SDS011;69825;51.190;6.808;2023-05-10T09:21:11;3.45;;;2.40;;
80503;SDS011;69825;51.190;6.808;2023-05-10T09:23:37;2.55;;;2.00;;
80503;SDS011;69825;51.190;6.808;2023-05-10T09:26:03;2.30;;;2.10;;
80503;SDS011;69825;51.190;6.808;2023-05-10T09:28:32;2.67;;;2.25;;
80503;SDS011;69825;51.190;6.808;2023-05-10T09:30:58;3.25;;;2.60;;
80503;SDS011;69825;51.190;6.808;2023-05-10T09:33:23;3.13;;;2.40;;
80503;SDS011;69825;51.190;6.808;2023-05-10T09:35:48;2.55;;;2.15;;
80503;SDS011;69825;51.190;6.808;2023-05-10T09:38:16;2.97;;;2.40;;
80503;SDS011;69825;51.190;6.808;2023-05-10T09:40:41;2.83;;;2.20;;
80503;SDS011;69825;51.190;6.808;2023-05-10T09:43:19;2.75;;;2.55;;
80503;SDS011;69825;51.190;6.808;2023-05-10T09:45:44;2.65;;;2.33;;
80503;SDS011;69825;51.190;6.808;2023-05-10T09:48:12;2.42;;;2.20;;
80503;SDS011;69825;51.190;6.808;2023-05-10T09:50:37;2.50;;;2.30;;
80503;SDS011;69825;51.190;6.808;2023-05-10T09:53:03;2.60;;;2.40;;
80503;SDS011;69825;51.190;6.808;2023-05-10T09:58:03;2.92;;;2.58;;
80503;SDS011;69825;51.190;6.808;2023-05-10T10:00:34;2.35;;;2.15;;
80503;SDS011;69825;51.190;6.808;2023-05-10T10:02:59;2.58;;;2.38;;
80503;SDS011;69825;51.190;6.808;2023-05-10T10:05:35;2.90;;;2.60;;
80503;SDS011;69825;51.190;6.808;2023-05-10T10:08:02;2.90;;;2.60;;
80503;SDS011;69825;51.190;6.808;2023-05-10T10:10:28;2.92;;;2.40;;
80503;SDS011;69825;51.190;6.808;2023-05-10T10:12:54;3.05;;;2.40;;
80503;SDS011;69825;51.190;6.808;2023-05-10T10:15:20;3.40;;;2.70;;
80503;SDS011;69825;51.190;6.808;2023-05-10T10:17:45;3.35;;;2.58;;
80503;SDS011;69825;51.190;6.808;2023-05-10T10:20:11;2.70;;;2.50;;
80503;SDS011;69825;51.190;6.808;2023-05-10T10:22:37;2.70;;;2.50;;
80503;SDS011;69825;51.190;6.808;2023-05-10T10:25:02;3.17;;;2.70;;
80503;SDS011;69825;51.190;6.808;2023-05-10T10:35:31;3.33;;;2.67;;
80503;SDS011;69825;51.190;6.808;2023-05-10T10:37:56;3.15;;;2.60;;
80503;SDS011;69825;51.190;6.808;2023-05-10T10:40:28;2.80;;;2.58;;
80503;SDS011;69825;51.190;6.808;2023-05-10T10:42:54;2.50;;;2.30;;
80503;SDS011;69825;51.190;6.808;2023-05-10T10:45:20;2.80;;;2.60;;
80503;SDS011;69825;51.190;6.808;2023-05-10T10:47:45;3.10;;;2.80;;
80503;SDS011;69825;51.190;6.808;2023-05-10T10:50:11;2.50;;;2.30;;
80503;SDS011;69825;51.190;6.808;2023-05-10T10:52:38;2.60;;;2.40;;
80503;SDS011;69825;51.190;6.808;2023-05-10T10:55:14;2.80;;;2.60;;
80503;SDS011;69825;51.190;6.808;2023-05-10T11:07:57;3.03;;;2.72;;
80503;SDS011;69825;51.190;6.808;2023-05-10T11:10:22;2.70;;;2.50;;
80503;SDS011;69825;51.190;6.808;2023-05-10T11:13:07;3.33;;;2.90;;
80503;SDS011;69825;51.190;6.808;2023-05-10T11:15:33;3.30;;;2.80;;
80503;SDS011;69825;51.190;6.808;2023-05-10T11:17:59;3.58;;;2.40;;
80503;SDS011;69825;51.190;6.808;2023-05-10T11:20:28;2.70;;;2.50;;
80503;SDS011;69825;51.190;6.808;2023-05-10T11:25:26;2.75;;;2.28;;
80503;SDS011;69825;51.190;6.808;2023-05-10T11:27:51;4.90;;;2.67;;
80503;SDS011;69825;51.190;6.808;2023-05-10T11:30:16;3.00;;;2.50;;
80503;SDS011;69825;51.190;6.808;2023-05-10T11:32:42;2.50;;;2.30;;
80503;SDS011;69825;51.190;6.808;2023-05-10T11:35:08;2.58;;;2.38;;
80503;SDS011;69825;51.190;6.808;2023-05-10T11:37:33;2.83;;;2.63;;
80503;SDS011;69825;51.190;6.808;2023-05-10T11:39:59;2.72;;;2.53;;
80503;SDS011;69825;51.190;6.808;2023-05-10T11:42:24;2.60;;;2.40;;
80503;SDS011;69825;51.190;6.808;2023-05-10T11:44:49;2.60;;;2.40;;
80503;SDS011;69825;51.190;6.808;2023-05-10T11:47:15;2.63;;;2.40;;
80503;SDS011;69825;51.190;6.808;2023-05-10T11:49:43;2.70;;;2.50;;
80503;SDS011;69825;51.190;6.808;2023-05-10T11:52:08;3.42;;;2.85;;
80503;SDS011;69825;51.190;6.808;2023-05-10T11:54:33;2.60;;;2.40;;
80503;SDS011;69825;51.190;6.808;2023-05-10T11:57:00;2.67;;;2.47;;
80503;SDS011;69825;51.190;6.808;2023-05-10T11:59:25;2.40;;;2.20;;
80503;SDS011;69825;51.190;6.808;2023-05-10T12:01:50;2.95;;;2.40;;
80503;SDS011;69825;51.190;6.808;2023-05-10T12:04:15;2.78;;;2.58;;
80503;SDS011;69825;51.190;6.808;2023-05-10T12:06:41;2.57;;;2.37;;
80503;SDS011;69825;51.190;6.808;2023-05-10T12:09:06;2.60;;;2.40;;
80503;SDS011;69825;51.190;6.808;2023-05-10T12:11:35;3.22;;;2.90;;
80503;SDS011;69825;51.190;6.808;2023-05-10T12:14:03;2.88;;;2.67;;
80503;SDS011;69825;51.190;6.808;2023-05-10T12:16:29;3.30;;;3.00;;
80503;SDS011;69825;51.190;6.808;2023-05-10T12:18:59;3.42;;;2.90;;
80503;SDS011;69825;51.190;6.808;2023-05-10T12:21:25;2.90;;;2.70;;
80503;SDS011;69825;51.190;6.808;2023-05-10T12:23:51;3.35;;;3.05;;
80503;SDS011;69825;51.190;6.808;2023-05-10T12:26:17;3.35;;;3.05;;
80503;SDS011;69825;51.190;6.808;2023-05-10T12:28:42;3.20;;;2.83;;
80503;SDS011;69825;51.190;6.808;2023-05-10T12:31:07;3.80;;;3.13;;
80503;SDS011;69825;51.190;6.808;2023-05-10T12:33:36;3.58;;;2.92;;
80503;SDS011;69825;51.190;6.808;2023-05-10T12:36:04;3.65;;;3.22;;
80503;SDS011;69825;51.190;6.808;2023-05-10T12:38:31;3.30;;;3.00;;
80503;SDS011;69825;51.190;6.808;2023-05-10T12:40:57;3.97;;;3.42;;
80503;SDS011;69825;51.190;6.808;2023-05-10T12:43:23;3.63;;;2.92;;
80503;SDS011;69825;51.190;6.808;2023-05-10T12:45:48;3.87;;;3.47;;
80503;SDS011;69825;51.190;6.808;2023-05-10T12:48:14;3.40;;;3.10;;
80503;SDS011;69825;51.190;6.808;2023-05-10T12:50:39;4.20;;;3.17;;
80503;SDS011;69825;51.190;6.808;2023-05-10T12:53:04;3.60;;;3.30;;
80503;SDS011;69825;51.190;6.808;2023-05-10T12:55:29;4.17;;;3.57;;
80503;SDS011;69825;51.190;6.808;2023-05-10T12:57:55;3.50;;;3.20;;
80503;SDS011;69825;51.190;6.808;2023-05-10T13:00:20;3.70;;;3.40;;
80503;SDS011;69825;51.190;6.808;2023-05-10T13:02:45;3.67;;;3.30;;
80503;SDS011;69825;51.190;6.808;2023-05-10T13:05:10;3.53;;;3.22;;
80503;SDS011;69825;51.190;6.808;2023-05-10T13:07:37;3.80;;;3.40;;
80503;SDS011;69825;51.190;6.808;2023-05-10T13:10:03;3.63;;;3.30;;
80503;SDS011;69825;51.190;6.808;2023-05-10T13:12:28;3.90;;;3.60;;
80503;SDS011;69825;51.190;6.808;2023-05-10T13:14:54;4.28;;;3.60;;
80503;SDS011;69825;51.190;6.808;2023-05-10T13:17:19;3.90;;;3.50;;
80503;SDS011;69825;51.190;6.808;2023-05-10T13:19:44;5.00;;;3.75;;
80503;SDS011;69825;51.190;6.808;2023-05-10T13:22:10;4.57;;;3.70;;
80503;SDS011;69825;51.190;6.808;2023-05-10T13:24:35;4.30;;;3.90;;
80503;SDS011;69825;51.190;6.808;2023-05-10T13:27:00;4.33;;;3.93;;
80503;SDS011;69825;51.190;6.808;2023-05-10T13:29:25;4.80;;;3.87;;
80503;SDS011;69825;51.190;6.808;2023-05-10T13:31:50;4.20;;;3.80;;
80503;SDS011;69825;51.190;6.808;2023-05-10T13:34:16;4.50;;;4.10;;
80503;SDS011;69825;51.190;6.808;2023-05-10T13:36:41;4.45;;;4.03;;
80503;SDS011;69825;51.190;6.808;2023-05-10T13:39:06;4.53;;;4.10;;
80503;SDS011;69825;51.190;6.808;2023-05-10T13:41:32;4.40;;;3.93;;
80503;SDS011;69825;51.190;6.808;2023-05-10T13:43:57;4.95;;;4.32;;
80503;SDS011;69825;51.190;6.808;2023-05-10T13:46:22;4.37;;;3.97;;
80503;SDS011;69825;51.190;6.808;2023-05-10T13:48:48;4.40;;;4.00;;
80503;SDS011;69825;51.190;6.808;2023-05-10T13:51:13;5.40;;;4.70;;
80503;SDS011;69825;51.190;6.808;2023-05-10T13:53:38;4.90;;;4.40;;
80503;SDS011;69825;51.190;6.808;2023-05-10T13:56:03;4.43;;;4.00;;
80503;SDS011;69825;51.190;6.808;2023-05-10T13:58:29;5.53;;;4.43;;
80503;SDS011;69825;51.190;6.808;2023-05-10T14:00:54;4.90;;;4.50;;
80503;SDS011;69825;51.190;6.808;2023-05-10T14:03:19;4.43;;;4.03;;
80503;SDS011;69825;51.190;6.808;2023-05-10T14:05:44;4.82;;;4.10;;
80503;SDS011;69825;51.190;6.808;2023-05-10T14:08:10;4.80;;;4.32;;
80503;SDS011;69825;51.190;6.808;2023-05-10T14:10:35;4.40;;;4.00;;
80503;SDS011;69825;51.190;6.808;2023-05-10T14:13:01;4.60;;;4.05;;
80503;SDS011;69825;51.190;6.808;2023-05-10T14:15:28;4.93;;;4.43;;
80503;SDS011;69825;51.190;6.808;2023-05-10T14:17:53;5.10;;;4.60;;
80503;SDS011;69825;51.190;6.808;2023-05-10T14:20:18;4.47;;;4.07;;
80503;SDS011;69825;51.190;6.808;2023-05-10T14:22:43;4.45;;;4.05;;
80503;SDS011;69825;51.190;6.808;2023-05-10T14:25:08;5.63;;;4.13;;
80503;SDS011;69825;51.190;6.808;2023-05-10T14:27:34;5.03;;;4.20;;
80503;SDS011;69825;51.190;6.808;2023-05-10T14:29:59;4.83;;;3.73;;
80503;SDS011;69825;51.190;6.808;2023-05-10T14:32:24;4.47;;;4.07;;
80503;SDS011;69825;51.190;6.808;2023-05-10T14:34:49;4.90;;;4.40;;
80503;SDS011;69825;51.190;6.808;2023-05-10T14:37:15;4.97;;;4.47;;
80503;SDS011;69825;51.190;6.808;2023-05-10T14:39:41;4.13;;;3.83;;
80503;SDS011;69825;51.190;6.808;2023-05-10T14:42:07;4.40;;;4.10;;
80503;SDS011;69825;51.190;6.808;2023-05-10T14:44:32;4.00;;;3.70;;
80503;SDS011;69825;51.190;6.808;2023-05-10T14:46:57;4.28;;;3.88;;
80503;SDS011;69825;51.190;6.808;2023-05-10T14:49:22;4.50;;;4.10;;
80503;SDS011;69825;51.190;6.808;2023-05-10T14:51:49;4.75;;;4.35;;
80503;SDS011;69825;51.190;6.808;2023-05-10T14:54:15;4.63;;;4.22;;
80503;SDS011;69825;51.190;6.808;2023-05-10T14:56:40;4.60;;;3.80;;
80503;SDS011;69825;51.190;6.808;2023-05-10T14:59:06;5.30;;;4.07;;
80503;SDS011;69825;51.190;6.808;2023-05-10T15:01:31;4.47;;;4.07;;
80503;SDS011;69825;51.190;6.808;2023-05-10T15:03:57;4.43;;;4.03;;
80503;SDS011;69825;51.190;6.808;2023-05-10T15:06:23;4.25;;;3.85;;
80503;SDS011;69825;51.190;6.808;2023-05-10T15:08:49;5.10;;;4.20;;
80503;SDS011;69825;51.190;6.808;2023-05-10T15:11:15;7.95;;;3.83;;
80503;SDS011;69825;51.190;6.808;2023-05-10T15:13:40;4.43;;;4.03;;
80503;SDS011;69825;51.190;6.808;2023-05-10T15:16:05;4.13;;;3.83;;
80503;SDS011;69825;51.190;6.808;2023-05-10T15:18:30;4.17;;;3.77;;